Time;durP1;ratioP1;P1;durP2;ratioP2;P2;SDS_P1;SDS_P2;PMS_P1;PMS_P2;Temp;Humidity;BMP_temperature;BMP_pressure;BME280_temperature;BME280_humidity;BME280_pressure;Samples;Min_cycle;Max_cycle;Signal;HPM_P1;HPM_P2
2022/05/02 00:00:24;;;;;;;21.70;15.37;;;8.90;90.10;;;;;;5092068;28;20888;-71
2022/05/02 00:02:51;;;;;;;19.63;15.63;;;8.90;90.00;;;;;;5074773;28;20586;-71
2022/05/02 00:05:21;;;;;;;18.20;14.47;;;8.90;90.00;;;;;;5048142;28;20536;-70
2022/05/02 00:07:48;;;;;;;19.60;16.50;;;8.90;89.80;;;;;;5052076;28;20482;-70
2022/05/02 00:10:14;;;;;;;16.37;13.90;;;8.80;89.90;;;;;;5059401;28;20481;-71
2022/05/02 00:12:48;;;;;;;19.93;15.40;;;8.70;90.00;;;;;;5064266;28;20490;-71
2022/05/02 00:15:15;;;;;;;23.73;18.87;;;8.70;89.60;;;;;;5046971;28;20511;-71
2022/05/02 00:17:58;;;;;;;22.93;15.80;;;8.70;90.20;;;;;;5068071;28;20980;-71
2022/05/02 00:20:26;;;;;;;19.97;16.47;;;8.60;90.10;;;;;;5076520;28;20468;-71
2022/05/02 00:22:53;;;;;;;20.97;14.97;;;8.60;90.00;;;;;;5086577;28;20482;-71
2022/05/02 00:25:20;;;;;;;17.97;15.30;;;8.50;89.60;;;;;;5086638;28;20848;-72
2022/05/02 00:27:48;;;;;;;23.30;15.57;;;8.50;89.30;;;;;;5083354;28;20485;-72
2022/05/02 00:30:15;;;;;;;22.50;16.70;;;8.40;89.10;;;;;;5093517;28;20475;-71
2022/05/02 00:32:44;;;;;;;21.87;16.23;;;8.40;89.50;;;;;;5081583;28;20613;-72
2022/05/02 00:35:12;;;;;;;17.20;14.90;;;8.40;89.90;;;;;;5075834;28;20470;-71
2022/05/02 00:37:40;;;;;;;19.60;16.30;;;8.30;90.00;;;;;;5085543;28;20485;-73
2022/05/02 00:40:09;;;;;;;23.17;16.93;;;8.30;90.10;;;;;;5075976;28;20513;-71
2022/05/02 00:42:36;;;;;;;18.87;14.70;;;8.30;90.10;;;;;;5089988;28;20479;-70
2022/05/02 00:45:05;;;;;;;19.90;15.97;;;8.20;90.00;;;;;;5083765;28;21100;-72
2022/05/02 00:47:32;;;;;;;24.63;18.43;;;8.10;89.80;;;;;;5079758;28;20485;-72
2022/05/02 00:50:00;;;;;;;25.07;16.70;;;8.10;90.00;;;;;;5087900;28;20477;-72
2022/05/02 00:52:27;;;;;;;21.70;16.07;;;8.10;90.10;;;;;;5089875;28;20913;-71
2022/05/02 00:54:54;;;;;;;18.67;16.20;;;8.10;90.00;;;;;;5084162;28;20830;-71
2022/05/02 00:57:20;;;;;;;20.70;15.63;;;8.10;90.00;;;;;;5085739;28;20570;-72
2022/05/02 00:59:47;;;;;;;18.43;15.07;;;8.10;89.50;;;;;;5087956;28;20481;-71
2022/05/02 01:02:16;;;;;;;18.43;13.87;;;8.00;89.00;;;;;;5078109;28;20492;-71
2022/05/02 01:04:43;;;;;;;21.30;15.33;;;8.00;88.90;;;;;;5089018;28;20491;-71
2022/05/02 01:07:11;;;;;;;20.57;15.93;;;7.90;88.50;;;;;;5084899;28;20480;-70
2022/05/02 01:09:41;;;;;;;17.33;14.00;;;7.80;88.90;;;;;;5083975;28;20494;-71
2022/05/02 01:12:10;;;;;;;20.10;15.87;;;7.70;88.90;;;;;;5057884;28;20481;-72
2022/05/02 01:14:37;;;;;;;18.73;14.93;;;7.70;88.80;;;;;;5062529;28;20879;-71
2022/05/02 01:17:06;;;;;;;17.80;15.50;;;7.60;88.80;;;;;;5089472;28;20877;-70
2022/05/02 01:19:32;;;;;;;19.73;15.00;;;7.60;88.90;;;;;;5088841;28;20494;-70
2022/05/02 01:22:01;;;;;;;21.50;15.67;;;7.60;89.00;;;;;;5090548;28;20494;-71
2022/05/02 01:24:35;;;;;;;21.67;14.10;;;7.60;89.60;;;;;;5076272;28;20480;-70
2022/05/02 01:27:04;;;;;;;19.43;15.20;;;7.60;89.30;;;;;;5074838;28;21155;-70
2022/05/02 01:29:33;;;;;;;21.70;16.70;;;7.60;89.00;;;;;;5093417;28;20479;-70
2022/05/02 01:31:59;;;;;;;20.17;14.87;;;7.50;88.90;;;;;;5083868;28;20512;-71
2022/05/02 01:34:26;;;;;;;20.77;14.60;;;7.40;88.80;;;;;;5087366;28;20511;-71
2022/05/02 01:36:53;;;;;;;21.03;15.43;;;7.20;89.70;;;;;;5087617;28;20834;-71
2022/05/02 01:39:21;;;;;;;25.33;17.90;;;6.90;90.40;;;;;;5095506;28;20507;-71
2022/05/02 01:41:49;;;;;;;20.90;17.70;;;6.70;91.20;;;;;;5070738;28;20484;-71
2022/05/02 01:44:15;;;;;;;21.43;16.77;;;6.80;91.10;;;;;;5082578;28;20483;-71
2022/05/02 01:46:43;;;;;;;23.07;17.57;;;6.90;91.00;;;;;;5091515;28;20472;-71
2022/05/02 01:49:09;;;;;;;20.80;15.93;;;6.90;90.60;;;;;;5094538;28;20490;-71
2022/05/02 01:51:36;;;;;;;18.97;15.07;;;7.00;90.40;;;;;;5076896;28;21001;-72
2022/05/02 01:54:03;;;;;;;23.03;15.40;;;7.00;90.40;;;;;;5088040;28;20499;-72
2022/05/02 01:56:31;;;;;;;21.03;15.33;;;7.00;90.50;;;;;;5083938;28;20474;-71
2022/05/02 01:58:57;;;;;;;17.43;15.00;;;7.00;90.50;;;;;;5084049;28;20571;-72
2022/05/02 02:01:24;;;;;;;20.97;15.00;;;7.00;90.40;;;;;;5085804;28;20490;-72
2022/05/02 02:03:51;;;;;;;16.07;13.83;;;7.00;90.40;;;;;;5065350;28;20479;-71
2022/05/02 02:06:18;;;;;;;21.00;16.23;;;7.00;90.60;;;;;;5091680;28;20991;-72
2022/05/02 02:08:46;;;;;;;22.53;16.33;;;7.00;90.40;;;;;;5090755;28;20958;-72
2022/05/02 02:11:12;;;;;;;20.03;15.67;;;7.00;90.70;;;;;;5074520;28;20476;-73
2022/05/02 02:13:40;;;;;;;17.90;15.20;;;7.00;90.60;;;;;;5080427;28;20502;-72
2022/05/02 02:16:09;;;;;;;19.30;15.10;;;7.00;90.30;;;;;;5089380;28;20484;-71
2022/05/02 02:18:38;;;;;;;19.70;15.93;;;7.00;90.00;;;;;;5092032;28;20510;-72
2022/05/02 02:21:06;;;;;;;18.27;13.60;;;6.90;89.30;;;;;;5093701;28;20490;-72
2022/05/02 02:23:33;;;;;;;18.60;14.50;;;6.90;88.90;;;;;;5096900;28;20490;-72
2022/05/02 02:26:00;;;;;;;16.87;13.50;;;6.90;88.60;;;;;;5097472;28;20476;-70
2022/05/02 02:28:27;;;;;;;22.70;14.60;;;6.90;88.50;;;;;;5097865;28;20482;-71
2022/05/02 02:30:55;;;;;;;17.23;14.00;;;6.90;88.60;;;;;;5098729;28;20483;-72
2022/05/02 02:33:22;;;;;;;19.60;15.30;;;6.80;88.30;;;;;;5076055;28;20471;-72
2022/05/02 02:35:50;;;;;;;20.93;14.50;;;6.80;88.70;;;;;;5083083;28;20489;-72
2022/05/02 02:38:17;;;;;;;18.93;14.67;;;6.70;88.60;;;;;;5055696;28;20550;-72
2022/05/02 02:40:44;;;;;;;18.40;14.60;;;6.70;88.30;;;;;;5059351;28;20952;-71
2022/05/02 02:43:10;;;;;;;16.13;13.83;;;6.70;88.50;;;;;;5084135;28;20492;-72
2022/05/02 02:45:38;;;;;;;16.83;13.60;;;6.70;88.80;;;;;;5085964;28;20490;-72
2022/05/02 02:48:08;;;;;;;17.83;14.10;;;6.60;88.60;;;;;;5090947;28;20475;-71
2022/05/02 02:50:35;;;;;;;21.03;14.13;;;6.60;88.30;;;;;;5100723;28;20480;-72
2022/05/02 02:53:03;;;;;;;18.17;13.07;;;6.60;88.70;;;;;;5098857;28;20481;-72
2022/05/02 02:55:31;;;;;;;18.70;14.67;;;6.50;88.50;;;;;;5100727;28;20791;-72
2022/05/02 02:57:57;;;;;;;23.10;15.70;;;6.50;88.50;;;;;;5068879;28;20501;-72
2022/05/02 03:00:24;;;;;;;19.80;15.07;;;6.30;89.00;;;;;;5080826;28;20488;-72
2022/05/02 03:02:52;;;;;;;23.00;16.50;;;6.20;89.80;;;;;;5087651;28;20475;-72
2022/05/02 03:08:09;;;;;;;22.03;15.20;;;5.90;90.50;;;;;;5064833;28;20522;-71
2022/05/02 03:10:35;;;;;;;18.00;15.67;;;6.00;90.40;;;;;;5074323;28;20485;-72
2022/05/02 03:13:02;;;;;;;23.67;16.57;;;6.00;90.10;;;;;;5079679;28;20506;-72
2022/05/02 03:15:29;;;;;;;20.10;15.13;;;6.00;90.10;;;;;;5038165;28;21143;-72
2022/05/02 03:17:57;;;;;;;20.10;14.60;;;6.00;90.00;;;;;;5080717;28;20846;-71
2022/05/02 03:20:25;;;;;;;20.47;16.00;;;6.00;90.00;;;;;;5058677;28;20503;-72
2022/05/02 03:22:55;;;;;;;21.90;17.13;;;6.00;90.10;;;;;;5045447;28;20489;-72
2022/05/02 03:25:21;;;;;;;20.03;14.90;;;6.10;90.00;;;;;;5075071;28;20484;-72
2022/05/02 03:27:48;;;;;;;22.13;16.47;;;6.10;90.00;;;;;;5074119;28;20479;-72
2022/05/02 03:30:15;;;;;;;21.07;15.50;;;6.20;89.60;;;;;;5071587;28;20475;-72
2022/05/02 03:32:43;;;;;;;18.37;14.10;;;6.20;89.20;;;;;;5074873;28;20849;-72
2022/05/02 03:35:11;;;;;;;20.60;15.17;;;6.20;89.00;;;;;;5089859;28;20577;-72
2022/05/02 03:37:39;;;;;;;18.70;14.83;;;6.20;88.50;;;;;;5063872;28;20709;-72
2022/05/02 03:40:08;;;;;;;19.50;15.40;;;6.20;88.30;;;;;;5089426;28;20484;-72
2022/05/02 03:42:37;;;;;;;20.97;14.87;;;6.10;88.00;;;;;;5084522;28;20878;-72
2022/05/02 03:45:05;;;;;;;21.30;15.87;;;6.10;88.30;;;;;;5086118;28;20476;-73
2022/05/02 03:47:33;;;;;;;22.20;14.67;;;6.10;88.20;;;;;;5090849;28;20478;-72
2022/05/02 03:50:00;;;;;;;20.10;15.30;;;6.00;88.10;;;;;;5088356;28;20491;-72
2022/05/02 03:52:27;;;;;;;21.27;15.33;;;6.00;88.30;;;;;;5089481;28;20466;-72
2022/05/02 03:54:55;;;;;;;17.30;13.60;;;5.90;88.30;;;;;;5093540;28;20470;-72
2022/05/02 03:57:23;;;;;;;19.70;14.53;;;5.80;88.60;;;;;;5088159;28;20492;-71
2022/05/02 03:59:50;;;;;;;18.50;14.10;;;5.80;88.80;;;;;;5063251;28;20507;-73
2022/05/02 04:02:18;;;;;;;21.97;15.40;;;5.80;88.50;;;;;;5063766;28;20515;-72
2022/05/02 04:04:45;;;;;;;23.93;15.93;;;5.70;88.70;;;;;;5080047;28;20882;-72
2022/05/02 04:07:12;;;;;;;22.53;14.90;;;5.70;89.00;;;;;;5090810;28;21648;-72
2022/05/02 04:09:39;;;;;;;19.67;14.13;;;5.60;89.50;;;;;;5064260;28;20484;-72
2022/05/02 04:12:08;;;;;;;17.37;13.80;;;5.70;89.40;;;;;;5075210;28;20509;-72
2022/05/02 04:14:35;;;;;;;16.97;14.33;;;5.60;89.30;;;;;;5080836;28;20475;-73
2022/05/02 04:17:03;;;;;;;19.00;14.80;;;5.60;89.00;;;;;;5071062;28;20513;-73
2022/05/02 04:19:31;;;;;;;16.90;13.30;;;5.50;89.30;;;;;;5074938;28;20483;-72
2022/05/02 04:21:57;;;;;;;24.20;17.47;;;5.50;89.80;;;;;;5084267;28;21073;-72
2022/05/02 04:24:24;;;;;;;66.10;21.70;;;5.50;90.00;;;;;;5093820;28;20486;-72
2022/05/02 04:26:51;;;;;;;33.17;18.27;;;5.40;90.60;;;;;;5079192;28;20495;-71
2022/05/02 04:29:19;;;;;;;33.03;17.90;;;5.40;91.00;;;;;;5039561;28;20972;-72
2022/05/02 04:31:46;;;;;;;26.93;18.50;;;5.30;90.90;;;;;;5064572;28;20477;-72
2022/05/02 04:34:14;;;;;;;46.03;19.20;;;5.40;90.80;;;;;;5091778;28;21018;-72
2022/05/02 04:36:40;;;;;;;46.83;20.80;;;5.40;90.70;;;;;;5074895;28;20488;-72
2022/05/02 04:39:07;;;;;;;49.93;18.87;;;5.50;90.60;;;;;;5073684;28;20482;-73
2022/05/02 04:41:35;;;;;;;45.40;19.17;;;5.60;90.60;;;;;;5085172;28;20473;-73
2022/05/02 04:44:02;;;;;;;51.47;20.43;;;5.70;90.60;;;;;;5059740;28;20515;-74
2022/05/02 04:46:30;;;;;;;37.67;18.33;;;5.70;90.70;;;;;;5065148;28;20484;-71
2022/05/02 04:48:56;;;;;;;68.07;22.17;;;5.70;90.70;;;;;;5048176;28;20484;-71
2022/05/02 04:51:24;;;;;;;78.87;20.57;;;5.60;90.70;;;;;;5085381;28;20492;-72
2022/05/02 04:53:51;;;;;;;65.80;19.90;;;5.60;90.80;;;;;;5089159;28;20913;-72
2022/05/02 04:56:17;;;;;;;82.63;21.80;;;5.50;91.10;;;;;;5090607;28;20474;-71
2022/05/02 04:58:44;;;;;;;49.60;21.10;;;5.40;91.40;;;;;;5074786;28;20480;-70
2022/05/02 05:01:11;;;;;;;40.13;20.47;;;5.30;91.70;;;;;;5074689;28;20488;-72
2022/05/02 05:03:39;;;;;;;46.10;19.00;;;5.40;92.00;;;;;;5071899;28;21044;-72
2022/05/02 05:06:06;;;;;;;31.20;17.67;;;5.50;91.90;;;;;;5088007;28;20479;-72
2022/05/02 05:08:33;;;;;;;31.63;15.70;;;5.50;91.60;;;;;;5095540;28;20479;-72
2022/05/02 05:11:09;;;;;;;37.13;19.33;;;5.60;91.50;;;;;;5087672;28;20734;-72
2022/05/02 05:13:44;;;;;;;45.33;18.60;;;5.70;91.40;;;;;;5073575;28;20475;-72
2022/05/02 05:16:28;;;;;;;33.60;19.87;;;5.80;91.40;;;;;;5095430;28;20477;-72
2022/05/02 05:19:05;;;;;;;45.37;20.47;;;6.00;91.50;;;;;;5090734;28;20575;-73
2022/05/02 05:21:45;;;;;;;32.23;18.90;;;6.10;91.60;;;;;;5085541;28;20505;-73
2022/05/02 05:24:48;;;;;;;36.20;20.60;;;6.20;91.70;;;;;;5068234;28;20491;-72
2022/05/02 05:27:30;;;;;;;49.03;20.80;;;6.20;91.60;;;;;;5033133;28;20488;-72
2022/05/02 05:30:04;;;;;;;31.40;20.23;;;6.40;91.80;;;;;;5082332;28;20481;-72
2022/05/02 05:32:43;;;;;;;36.60;22.00;;;6.60;91.90;;;;;;5088458;28;20489;-72
2022/05/02 05:35:12;;;;;;;31.83;20.97;;;6.70;91.90;;;;;;5090833;28;20509;-73
2022/05/02 05:38:01;;;;;;;29.30;20.77;;;6.80;91.80;;;;;;5076835;28;20503;-73
2022/05/02 05:40:36;;;;;;;29.87;19.80;;;6.80;91.90;;;;;;5093896;28;20554;-73
2022/05/02 05:43:38;;;;;;;28.80;20.30;;;7.00;92.00;;;;;;5090625;28;20517;-73
2022/05/02 05:46:31;;;;;;;30.43;20.10;;;7.10;92.20;;;;;;5090176;28;20487;-73
2022/05/02 05:49:05;;;;;;;28.33;20.00;;;7.20;92.40;;;;;;5077433;28;20483;-73
2022/05/02 05:51:37;;;;;;;26.00;20.77;;;7.30;92.50;;;;;;5087324;28;20510;-72
2022/05/02 05:54:21;;;;;;;25.07;18.97;;;7.30;92.90;;;;;;5088092;28;20538;-72
2022/05/02 05:57:00;;;;;;;29.50;20.20;;;7.50;92.60;;;;;;5063224;28;20962;-73
2022/05/02 05:59:41;;;;;;;24.17;19.47;;;7.60;92.90;;;;;;5069566;28;20859;-73
2022/05/02 06:02:16;;;;;;;27.53;19.30;;;7.70;92.90;;;;;;5079549;28;20850;-72
2022/05/02 06:04:44;;;;;;;27.53;20.20;;;7.80;93.30;;;;;;5088979;28;20489;-73
2022/05/02 06:07:13;;;;;;;34.80;22.47;;;7.90;93.60;;;;;;5095337;28;20486;-72
2022/05/02 06:09:43;;;;;;;25.30;19.20;;;8.10;94.00;;;;;;5091141;28;20492;-72
2022/05/02 06:12:13;;;;;;;31.73;23.43;;;8.10;93.80;;;;;;5088856;28;20566;-73
2022/05/02 06:20:12;;;;;;;33.60;23.47;;;8.70;94.50;;;;;;5089206;28;20539;-72
2022/05/02 06:22:41;;;;;;;36.97;26.43;;;8.90;94.90;;;;;;5080543;28;20499;-72
2022/05/02 06:25:09;;;;;;;39.10;28.43;;;9.10;95.50;;;;;;5093160;28;20484;-72
2022/05/02 06:27:42;;;;;;;48.00;29.07;;;9.40;95.60;;;;;;5095165;28;20565;-72
2022/05/02 06:30:11;;;;;;;38.17;27.33;;;9.80;96.20;;;;;;5094165;28;20471;-72
2022/05/02 06:32:44;;;;;;;34.80;26.10;;;10.20;96.20;;;;;;5091904;28;20534;-72
2022/05/02 06:35:11;;;;;;;40.00;26.90;;;10.60;95.90;;;;;;5083435;28;20472;-72
2022/05/02 06:37:46;;;;;;;30.73;23.53;;;11.00;95.60;;;;;;5091871;28;20483;-72
2022/05/02 06:40:20;;;;;;;29.63;22.83;;;11.40;95.40;;;;;;5088463;28;20925;-72
2022/05/02 06:42:56;;;;;;;23.70;19.87;;;11.80;95.70;;;;;;5100080;28;20515;-73
2022/05/02 06:45:31;;;;;;;26.83;20.67;;;12.30;95.70;;;;;;5101672;28;20480;-71
2022/05/02 06:48:28;;;;;;;23.40;19.17;;;12.70;95.30;;;;;;5061728;28;20500;-71
2022/05/02 06:51:00;;;;;;;23.13;17.20;;;13.20;94.60;;;;;;5079354;28;20465;-70
2022/05/02 06:53:48;;;;;;;22.73;17.23;;;13.50;93.50;;;;;;5088974;28;20471;-72
2022/05/02 06:56:26;;;;;;;23.30;19.13;;;13.90;93.60;;;;;;5084897;28;20520;-72
2022/05/02 06:59:11;;;;;;;22.17;18.30;;;14.30;93.30;;;;;;5094069;28;20983;-72
2022/05/02 07:01:48;;;;;;;28.10;19.53;;;14.70;92.50;;;;;;5086430;28;20485;-72
2022/05/02 07:04:41;;;;;;;21.00;17.33;;;15.00;92.40;;;;;;5071896;28;20497;-72
2022/05/02 07:07:20;;;;;;;22.90;18.57;;;15.30;91.60;;;;;;5091832;28;20476;-72
2022/05/02 07:09:54;;;;;;;35.63;19.20;;;15.60;92.00;;;;;;5088659;28;20830;-74
2022/05/02 07:12:24;;;;;;;22.10;19.40;;;15.80;91.50;;;;;;5091842;28;20492;-73
2022/05/02 07:15:03;;;;;;;24.97;18.33;;;15.90;90.70;;;;;;5094870;28;20474;-72
2022/05/02 07:17:44;;;;;;;24.87;19.50;;;16.10;90.20;;;;;;5084770;28;20482;-73
2022/05/02 07:20:17;;;;;;;24.90;17.37;;;16.20;90.30;;;;;;5084088;28;20966;-73
2022/05/02 07:22:50;;;;;;;24.73;18.43;;;16.30;90.50;;;;;;5086590;28;20498;-73
2022/05/02 07:25:21;;;;;;;25.07;18.70;;;16.50;90.50;;;;;;5099556;28;20566;-72
2022/05/02 07:27:59;;;;;;;22.87;18.67;;;16.70;90.60;;;;;;5087889;28;20830;-73
2022/05/02 07:30:26;;;;;;;21.73;18.90;;;17.00;90.00;;;;;;5089754;28;20478;-73
2022/05/02 07:32:54;;;;;;;21.10;18.63;;;17.20;89.60;;;;;;5087567;28;20496;-73
2022/05/02 07:35:23;;;;;;;20.27;17.97;;;17.30;89.20;;;;;;5088166;28;20870;-72
2022/05/02 07:37:51;;;;;;;27.83;18.63;;;17.60;90.40;;;;;;5092677;28;20842;-71
2022/05/02 07:40:21;;;;;;;22.43;18.70;;;17.80;89.30;;;;;;5084710;28;21319;-72
2022/05/02 07:42:52;;;;;;;22.73;17.57;;;18.00;89.00;;;;;;5087569;28;20488;-72
2022/05/02 07:45:24;;;;;;;22.53;18.20;;;18.20;88.70;;;;;;5086429;28;20488;-72
2022/05/02 07:47:54;;;;;;;22.80;18.53;;;18.40;87.20;;;;;;5085302;28;20499;-72
2022/05/02 07:50:22;;;;;;;22.07;17.50;;;18.60;86.80;;;;;;5097232;28;20493;-73
2022/05/02 07:52:52;;;;;;;22.23;18.60;;;18.80;87.70;;;;;;5088784;28;20482;-72
2022/05/02 07:55:23;;;;;;;22.40;18.23;;;19.00;86.60;;;;;;5099297;28;20469;-73
2022/05/02 07:57:50;;;;;;;20.50;18.23;;;19.10;86.50;;;;;;5094599;28;20492;-72
2022/05/02 08:00:17;;;;;;;19.30;17.37;;;19.30;86.50;;;;;;5088391;28;20488;-72
2022/05/02 08:02:44;;;;;;;19.93;17.83;;;19.30;86.40;;;;;;5087848;28;21576;-73
2022/05/02 08:05:11;;;;;;;20.07;16.40;;;19.40;85.20;;;;;;5097207;28;20488;-72
2022/05/02 08:07:39;;;;;;;20.83;17.60;;;19.50;83.80;;;;;;5086385;28;20482;-74
2022/05/02 08:10:21;;;;;;;23.03;17.47;;;19.60;84.80;;;;;;5063923;28;20468;-72
2022/05/02 08:12:54;;;;;;;22.43;17.93;;;19.80;84.80;;;;;;5090759;28;20474;-73
2022/05/02 08:15:25;;;;;;;19.03;17.03;;;19.90;85.00;;;;;;5085241;28;20482;-74
2022/05/02 08:18:07;;;;;;;23.33;17.77;;;20.10;84.60;;;;;;5089046;28;20486;-73
2022/05/02 08:20:43;;;;;;;19.23;17.30;;;20.30;84.60;;;;;;5092044;28;20818;-74
2022/05/02 08:29:17;;;;;;;21.73;18.10;;;21.10;84.20;;;;;;5080408;28;20531;-71
2022/05/02 08:31:57;;;;;;;19.70;17.60;;;21.30;82.90;;;;;;5082556;28;20477;-73
2022/05/02 08:34:32;;;;;;;22.80;19.13;;;20.80;78.70;;;;;;5091041;28;20816;-74
2022/05/02 08:37:12;;;;;;;26.33;17.60;;;20.80;83.10;;;;;;5079131;28;20698;-74
2022/05/02 08:39:54;;;;;;;20.23;17.00;;;21.00;83.60;;;;;;5076848;28;20473;-75
2022/05/02 08:42:47;;;;;;;18.53;16.53;;;21.30;82.90;;;;;;5085782;28;20532;-72
2022/05/02 08:45:59;;;;;;;25.50;16.47;;;21.60;82.30;;;;;;5089466;28;20829;-73
2022/05/02 08:52:33;;;;;;;19.70;17.60;;;22.10;81.30;;;;;;5041291;28;20895;-72
2022/05/02 08:55:16;;;;;;;23.47;18.43;;;22.40;81.60;;;;;;5074030;28;20860;-72
2022/05/02 08:58:31;;;;;;;18.20;16.50;;;22.40;80.80;;;;;;5076986;28;20570;-72
2022/05/02 09:01:12;;;;;;;20.90;17.43;;;22.50;81.20;;;;;;5019437;28;20478;-73
2022/05/02 09:04:09;;;;;;;19.60;16.50;;;22.60;80.10;;;;;;5007841;28;20483;-73
2022/05/02 09:07:20;;;;;;;19.23;17.27;;;22.60;80.10;;;;;;5083804;28;20479;-74
2022/05/02 09:10:06;;;;;;;17.67;15.67;;;22.70;80.00;;;;;;5087879;28;20483;-77
2022/05/02 09:13:10;;;;;;;17.17;15.50;;;22.90;78.00;;;;;;5075057;28;20481;-75
2022/05/02 09:15:58;;;;;;;17.60;15.70;;;23.00;79.40;;;;;;5060237;28;21176;-74
2022/05/02 09:19:13;;;;;;;15.20;13.73;;;23.00;72.90;;;;;;5082598;28;20484;-75
2022/05/02 09:22:06;;;;;;;18.53;16.50;;;23.00;75.80;;;;;;5057392;28;20487;-75
2022/05/02 09:25:04;;;;;;;18.13;16.30;;;22.90;75.60;;;;;;5093388;28;20464;-73
2022/05/02 09:27:53;;;;;;;22.33;16.70;;;23.00;75.30;;;;;;5039301;28;20972;-73
2022/05/02 09:30:53;;;;;;;17.47;15.67;;;23.00;74.80;;;;;;5084160;28;20507;-75
2022/05/02 09:33:31;;;;;;;17.90;14.03;;;22.80;74.60;;;;;;5086758;28;20453;-75
2022/05/02 09:36:06;;;;;;;15.37;13.77;;;23.00;73.10;;;;;;5096821;28;20484;-73
2022/05/02 09:38:48;;;;;;;20.53;16.87;;;23.00;72.20;;;;;;5090195;28;20514;-75
2022/05/02 09:41:30;;;;;;;20.00;13.57;;;22.70;70.10;;;;;;5089747;28;20568;-76
2022/05/02 09:50:12;;;;;;;13.67;12.37;;;23.00;75.90;;;;;;5084151;28;20537;-76
2022/05/02 09:52:58;;;;;;;15.83;14.20;;;23.20;72.90;;;;;;5088385;28;20520;-78
2022/05/02 09:58:32;;;;;;;16.50;13.90;;;23.90;72.70;;;;;;5093597;28;20844;-75
2022/05/02 10:01:11;;;;;;;15.83;12.90;;;24.10;71.10;;;;;;5097705;28;20491;-78
2022/05/02 10:03:40;;;;;;;15.23;13.60;;;24.30;73.40;;;;;;5094398;28;20471;-76
2022/05/02 10:06:10;;;;;;;15.23;13.73;;;24.40;72.50;;;;;;5095577;28;20483;-75
2022/05/02 10:08:50;;;;;;;15.90;13.10;;;24.50;70.90;;;;;;5075769;28;20859;-76
2022/05/02 10:11:41;;;;;;;15.13;12.10;;;24.40;69.50;;;;;;5077093;28;20476;-73
2022/05/02 10:14:30;;;;;;;14.47;12.97;;;24.40;71.40;;;;;;5097498;28;20463;-73
2022/05/02 10:17:05;;;;;;;14.60;12.23;;;24.30;69.90;;;;;;5099660;28;20484;-73
2022/05/02 10:19:48;;;;;;;12.90;11.33;;;24.40;71.30;;;;;;5090060;28;20830;-75
2022/05/02 10:22:28;;;;;;;14.80;12.17;;;24.50;69.20;;;;;;5066325;28;20537;-74
2022/05/02 10:25:12;;;;;;;14.70;11.77;;;24.60;70.30;;;;;;5096731;28;20495;-73
2022/05/02 10:28:04;;;;;;;12.90;11.40;;;24.60;68.20;;;;;;5098630;28;20559;-75
2022/05/02 10:30:43;;;;;;;12.33;11.23;;;24.40;67.40;;;;;;5093544;28;20575;-75
2022/05/02 10:33:15;;;;;;;14.97;11.73;;;24.00;67.00;;;;;;5087059;27;21464;-75
2022/05/02 10:35:46;;;;;;;13.43;11.67;;;23.70;67.60;;;;;;5071511;28;20501;-75
2022/05/02 10:38:19;;;;;;;14.63;12.00;;;23.30;68.70;;;;;;5079959;28;20512;-74
2022/05/02 10:40:51;;;;;;;14.73;11.60;;;23.20;70.70;;;;;;5093073;28;20477;-73
2022/05/02 10:43:25;;;;;;;16.43;12.27;;;23.20;69.60;;;;;;5095838;28;20480;-74
2022/05/02 10:45:54;;;;;;;13.07;11.57;;;23.00;70.80;;;;;;5089734;28;20555;-74
2022/05/02 10:48:39;;;;;;;13.53;12.20;;;22.70;67.40;;;;;;5089448;28;20545;-75
2022/05/02 10:51:12;;;;;;;13.27;11.90;;;22.50;68.70;;;;;;5098010;28;20473;-76
2022/05/02 10:54:12;;;;;;;14.13;11.10;;;22.60;72.00;;;;;;5075797;28;20555;-76
2022/05/02 10:56:44;;;;;;;13.10;11.90;;;22.80;70.20;;;;;;5077508;28;20483;-76
2022/05/02 10:59:14;;;;;;;18.37;11.17;;;22.90;69.50;;;;;;5079544;28;20874;-76
2022/05/02 11:02:05;;;;;;;12.27;10.97;;;23.10;69.70;;;;;;5089477;28;20911;-74
2022/05/02 11:05:04;;;;;;;13.77;10.17;;;23.20;67.30;;;;;;5085161;28;20478;-75
2022/05/02 11:07:40;;;;;;;13.33;12.13;;;23.60;69.30;;;;;;5091231;28;20503;-74
2022/05/02 11:10:10;;;;;;;20.90;12.50;;;23.70;72.10;;;;;;5084064;28;20566;-74
2022/05/02 11:12:42;;;;;;;12.90;11.60;;;23.80;71.10;;;;;;5091000;28;20555;-74
2022/05/02 11:15:11;;;;;;;11.90;10.80;;;23.90;69.10;;;;;;5091298;28;20488;-76
2022/05/02 11:17:55;;;;;;;16.20;11.90;;;23.80;68.20;;;;;;5093560;28;20531;-75
2022/05/02 11:20:42;;;;;;;13.53;11.97;;;23.70;68.40;;;;;;5096743;28;20484;-75
2022/05/02 11:23:32;;;;;;;13.70;11.83;;;23.60;67.80;;;;;;5091371;28;20463;-74
2022/05/02 11:26:17;;;;;;;12.33;11.23;;;23.60;69.50;;;;;;5078073;28;20832;-76
2022/05/02 11:29:00;;;;;;;15.93;12.17;;;23.60;68.50;;;;;;5083858;28;20555;-73
2022/05/02 11:31:31;;;;;;;14.10;12.80;;;23.50;67.90;;;;;;5083894;28;20479;-75
2022/05/02 11:34:05;;;;;;;13.97;12.50;;;23.50;68.80;;;;;;5095239;28;20487;-73
2022/05/02 11:36:34;;;;;;;13.43;12.03;;;23.60;70.30;;;;;;5089645;28;20468;-72
2022/05/02 11:39:05;;;;;;;12.70;11.50;;;23.70;69.50;;;;;;5090309;28;20573;-73
2022/05/02 11:41:32;;;;;;;13.30;11.90;;;23.90;68.90;;;;;;5083715;28;20635;-74
2022/05/02 11:44:10;;;;;;;15.13;11.40;;;23.90;69.70;;;;;;5078941;28;20483;-75
2022/05/02 11:46:52;;;;;;;13.60;10.90;;;23.80;66.40;;;;;;5090106;28;20477;-75
2022/05/02 11:49:31;;;;;;;12.47;10.70;;;23.70;66.40;;;;;;5087187;28;20493;-75
2022/05/02 11:52:01;;;;;;;11.80;10.63;;;23.40;66.70;;;;;;5088204;28;20487;-76
2022/05/02 11:54:36;;;;;;;12.77;11.23;;;23.20;67.50;;;;;;5083732;28;20828;-74
2022/05/02 11:57:14;;;;;;;12.70;10.63;;;23.00;66.60;;;;;;5087153;28;20440;-75
2022/05/02 11:59:56;;;;;;;12.27;11.10;;;22.80;68.30;;;;;;5063618;28;20939;-76
2022/05/02 12:02:33;;;;;;;11.43;10.40;;;22.60;66.50;;;;;;5090899;28;20865;-73
2022/05/02 12:05:05;;;;;;;11.07;10.07;;;22.60;66.70;;;;;;5083946;28;21014;-75
2022/05/02 12:07:33;;;;;;;12.37;11.10;;;22.90;70.40;;;;;;5083011;28;20495;-74
2022/05/02 12:10:06;;;;;;;17.87;10.90;;;23.30;69.80;;;;;;5064041;28;20496;-78
2022/05/02 12:12:33;;;;;;;12.53;11.20;;;23.50;70.70;;;;;;5081597;28;20476;-74
2022/05/02 12:15:10;;;;;;;12.27;11.17;;;23.20;67.20;;;;;;5074018;28;20485;-73
2022/05/02 12:17:52;;;;;;;12.37;11.10;;;23.10;68.00;;;;;;5081287;28;20486;-73
2022/05/02 12:20:30;;;;;;;12.10;10.27;;;23.00;69.00;;;;;;5035141;28;20930;-73
2022/05/02 12:23:02;;;;;;;12.50;11.30;;;22.80;67.40;;;;;;5065573;28;20479;-74
2022/05/02 12:25:29;;;;;;;12.20;11.10;;;22.80;68.30;;;;;;5044837;28;20488;-76
2022/05/02 12:27:57;;;;;;;11.83;10.53;;;22.70;68.30;;;;;;5073222;28;20458;-76
2022/05/02 12:30:28;;;;;;;11.23;10.23;;;22.70;68.60;;;;;;5057703;28;20619;-74
2022/05/02 12:33:01;;;;;;;11.10;10.17;;;22.70;68.30;;;;;;5056658;28;20991;-75
2022/05/02 12:35:36;;;;;;;11.03;9.93;;;22.70;68.20;;;;;;5089820;28;21081;-74
2022/05/02 12:38:12;;;;;;;10.73;9.77;;;22.60;67.70;;;;;;5086895;28;20577;-75
2022/05/02 12:40:41;;;;;;;10.90;10.03;;;22.60;69.20;;;;;;5091768;28;20979;-74
2022/05/02 12:43:12;;;;;;;11.00;10.00;;;22.70;68.20;;;;;;5091141;28;21059;-75
2022/05/02 12:45:47;;;;;;;11.83;10.73;;;22.60;68.60;;;;;;5085770;28;20499;-76
2022/05/02 12:48:29;;;;;;;13.63;11.20;;;22.60;68.60;;;;;;5083826;28;20472;-75
2022/05/02 12:50:58;;;;;;;14.07;11.10;;;22.90;72.10;;;;;;5083924;28;20481;-75
2022/05/02 12:56:12;;;;;;;13.23;10.60;;;23.70;70.50;;;;;;5092619;28;20582;-74
2022/05/02 13:01:25;;;;;;;18.10;11.80;;;23.80;65.80;;;;;;5082665;28;20467;-72
2022/05/02 13:03:57;;;;;;;12.93;11.57;;;23.60;66.60;;;;;;5089888;28;20459;-74
2022/05/02 13:06:25;;;;;;;12.40;10.90;;;23.20;65.70;;;;;;5081397;28;21038;-77
2022/05/02 13:09:07;;;;;;;11.87;10.77;;;22.90;68.10;;;;;;5088160;28;20867;-73
2022/05/02 13:11:38;;;;;;;11.33;10.23;;;22.80;68.10;;;;;;5098672;28;21418;-75
2022/05/02 13:14:06;;;;;;;12.13;10.83;;;22.60;66.20;;;;;;5085784;28;21361;-73
2022/05/02 13:16:43;;;;;;;11.20;10.03;;;22.60;65.60;;;;;;5091395;28;21002;-77
2022/05/02 13:19:11;;;;;;;11.00;9.83;;;22.50;67.00;;;;;;5094127;28;20487;-74
2022/05/02 13:21:39;;;;;;;11.60;9.90;;;22.60;67.10;;;;;;5091729;28;20503;-77
2022/05/02 13:24:08;;;;;;;10.30;9.40;;;22.60;67.00;;;;;;5095488;28;20481;-75
2022/05/02 13:27:02;;;;;;;14.70;10.60;;;22.50;65.90;;;;;;5084682;28;20471;-74
2022/05/02 13:29:56;;;;;;;11.23;10.07;;;22.50;67.30;;;;;;5080910;28;20469;-74
2022/05/02 13:32:27;;;;;;;11.83;9.37;;;22.50;66.50;;;;;;5079916;28;20512;-76
2022/05/02 13:35:10;;;;;;;11.50;10.47;;;22.60;66.90;;;;;;5097529;28;20859;-76
2022/05/02 13:37:54;;;;;;;15.30;10.50;;;22.50;67.20;;;;;;5087184;28;20474;-73